sensor_id;sensor_type;location;lat;lon;timestamp;pressure;altitude;pressure_sealevel;temperature;humidity
8890;BME280;4481;43.406;24.454;2023-03-04T00:00:17;77903.78;;;-144.09;100.00
8890;BME280;4481;43.406;24.454;2023-03-04T00:02:43;77895.44;;;-144.09;100.00
8890;BME280;4481;43.406;24.454;2023-03-04T00:05:09;77891.25;;;-144.09;100.00
8890;BME280;4481;43.406;24.454;2023-03-04T00:07:35;77897.50;;;-144.09;100.00
8890;BME280;4481;43.406;24.454;2023-03-04T00:10:02;77924.69;;;-144.09;100.00
8890;BME280;4481;43.406;24.454;2023-03-04T00:12:28;77920.50;;;-144.09;100.00
8890;BME280;4481;43.406;24.454;2023-03-04T00:14:55;77907.97;;;-144.09;100.00
8890;BME280;4481;43.406;24.454;2023-03-04T00:17:21;77924.69;;;-144.09;100.00
8890;BME280;4481;43.406;24.454;2023-03-04T00:19:48;77916.31;;;-144.09;100.00
8890;BME280;4481;43.406;24.454;2023-03-04T00:22:14;77895.44;;;-144.09;100.00
8890;BME280;4481;43.406;24.454;2023-03-04T00:24:40;77884.97;;;-144.09;100.00
8890;BME280;4481;43.406;24.454;2023-03-04T00:27:06;77876.63;;;-144.09;100.00
8890;BME280;4481;43.406;24.454;2023-03-04T00:29:32;77861.97;;;-144.09;100.00
8890;BME280;4481;43.406;24.454;2023-03-04T00:31:59;77868.25;;;-144.09;100.00
8890;BME280;4481;43.406;24.454;2023-03-04T00:34:25;77857.81;;;-144.09;100.00
8890;BME280;4481;43.406;24.454;2023-03-04T00:36:51;77859.88;;;-144.09;100.00
8890;BME280;4481;43.406;24.454;2023-03-04T00:39:17;77847.34;;;-144.09;100.00
8890;BME280;4481;43.406;24.454;2023-03-04T00:41:44;77855.72;;;-144.09;100.00
8890;BME280;4481;43.406;24.454;2023-03-04T00:44:10;77849.44;;;-144.09;100.00
8890;BME280;4481;43.406;24.454;2023-03-04T00:46:37;77836.91;;;-144.09;100.00
8890;BME280;4481;43.406;24.454;2023-03-04T00:49:04;77851.53;;;-144.09;100.00
8890;BME280;4481;43.406;24.454;2023-03-04T00:51:30;77859.88;;;-144.09;100.00
8890;BME280;4481;43.406;24.454;2023-03-04T00:53:56;77874.53;;;-144.09;100.00
8890;BME280;4481;43.406;24.454;2023-03-04T00:56:22;77870.34;;;-144.09;100.00
8890;BME280;4481;43.406;24.454;2023-03-04T00:58:48;77851.53;;;-144.09;100.00
8890;BME280;4481;43.406;24.454;2023-03-04T01:01:14;77832.72;;;-144.09;100.00
8890;BME280;4481;43.406;24.454;2023-03-04T01:03:41;77859.88;;;-144.09;100.00
8890;BME280;4481;43.406;24.454;2023-03-04T01:06:08;77849.44;;;-144.09;100.00
8890;BME280;4481;43.406;24.454;2023-03-04T01:08:34;77874.53;;;-144.09;100.00
8890;BME280;4481;43.406;24.454;2023-03-04T01:11:00;77851.53;;;-144.09;100.00
8890;BME280;4481;43.406;24.454;2023-03-04T01:13:26;77845.25;;;-144.09;100.00
8890;BME280;4481;43.406;24.454;2023-03-04T01:15:52;77876.63;;;-144.09;100.00
8890;BME280;4481;43.406;24.454;2023-03-04T01:18:18;77887.06;;;-144.09;100.00
8890;BME280;4481;43.406;24.454;2023-03-04T01:20:45;77857.81;;;-144.09;100.00
8890;BME280;4481;43.406;24.454;2023-03-04T01:23:11;77830.63;;;-144.09;100.00
8890;BME280;4481;43.406;24.454;2023-03-04T01:25:38;77809.72;;;-144.09;100.00
8890;BME280;4481;43.406;24.454;2023-03-04T01:28:04;77826.44;;;-144.09;100.00
8890;BME280;4481;43.406;24.454;2023-03-04T01:30:30;77834.81;;;-144.09;100.00
8890;BME280;4481;43.406;24.454;2023-03-04T01:32:56;77836.91;;;-144.09;100.00
8890;BME280;4481;43.406;24.454;2023-03-04T01:35:23;77843.16;;;-144.09;100.00
8890;BME280;4481;43.406;24.454;2023-03-04T01:37:49;77851.53;;;-144.09;100.00
8890;BME280;4481;43.406;24.454;2023-03-04T01:40:16;77843.16;;;-144.09;100.00
8890;BME280;4481;43.406;24.454;2023-03-04T01:42:43;77816.00;;;-144.09;100.00
8890;BME280;4481;43.406;24.454;2023-03-04T01:45:12;77822.25;;;-144.09;100.00
8890;BME280;4481;43.406;24.454;2023-03-04T01:47:39;77813.91;;;-144.09;100.00
8890;BME280;4481;43.406;24.454;2023-03-04T01:50:10;77830.63;;;-144.09;100.00
8890;BME280;4481;43.406;24.454;2023-03-04T01:52:41;77834.81;;;-144.09;100.00
8890;BME280;4481;43.406;24.454;2023-03-04T01:55:13;77820.16;;;-144.09;100.00
8890;BME280;4481;43.406;24.454;2023-03-04T01:57:40;77793.00;;;-144.09;100.00
8890;BME280;4481;43.406;24.454;2023-03-04T02:00:17;77809.72;;;-144.09;100.00
8890;BME280;4481;43.406;24.454;2023-03-04T02:02:44;77834.81;;;-144.09;100.00
8890;BME280;4481;43.406;24.454;2023-03-04T02:05:10;77818.09;;;-144.09;100.00
8890;BME280;4481;43.406;24.454;2023-03-04T02:07:37;77801.34;;;-144.09;100.00
8890;BME280;4481;43.406;24.454;2023-03-04T02:10:04;77830.63;;;-144.09;100.00
8890;BME280;4481;43.406;24.454;2023-03-04T02:12:30;77847.34;;;-144.09;100.00
8890;BME280;4481;43.406;24.454;2023-03-04T02:14:57;77822.25;;;-144.09;100.00
8890;BME280;4481;43.406;24.454;2023-03-04T02:17:24;77813.91;;;-144.09;100.00
8890;BME280;4481;43.406;24.454;2023-03-04T02:19:54;77830.63;;;-144.09;100.00
8890;BME280;4481;43.406;24.454;2023-03-04T02:22:21;77836.91;;;-144.09;100.00
8890;BME280;4481;43.406;24.454;2023-03-04T02:24:51;77803.44;;;-144.09;100.00
8890;BME280;4481;43.406;24.454;2023-03-04T02:27:19;77805.53;;;-144.09;100.00
8890;BME280;4481;43.406;24.454;2023-03-04T02:29:45;77822.25;;;-144.09;100.00
8890;BME280;4481;43.406;24.454;2023-03-04T02:32:12;77828.53;;;-144.09;100.00
8890;BME280;4481;43.406;24.454;2023-03-04T02:34:43;77826.44;;;-144.09;100.00
8890;BME280;4481;43.406;24.454;2023-03-04T02:37:10;77832.72;;;-144.09;100.00
8890;BME280;4481;43.406;24.454;2023-03-04T02:39:40;77843.16;;;-144.09;100.00
8890;BME280;4481;43.406;24.454;2023-03-04T02:42:07;77838.97;;;-144.09;100.00
8890;BME280;4481;43.406;24.454;2023-03-04T02:44:35;77830.63;;;-144.09;100.00
8890;BME280;4481;43.406;24.454;2023-03-04T02:47:04;77828.53;;;-144.09;100.00
8890;BME280;4481;43.406;24.454;2023-03-04T02:49:32;77826.44;;;-144.09;100.00
8890;BME280;4481;43.406;24.454;2023-03-04T02:52:00;77811.81;;;-144.09;100.00
8890;BME280;4481;43.406;24.454;2023-03-04T02:54:26;77826.44;;;-144.09;100.00
8890;BME280;4481;43.406;24.454;2023-03-04T02:56:54;77818.09;;;-144.09;100.00
8890;BME280;4481;43.406;24.454;2023-03-04T02:59:21;77807.63;;;-144.09;100.00
8890;BME280;4481;43.406;24.454;2023-03-04T03:01:48;77782.53;;;-144.09;100.00
8890;BME280;4481;43.406;24.454;2023-03-04T03:04:15;77788.81;;;-144.09;100.00
8890;BME280;4481;43.406;24.454;2023-03-04T03:06:41;77803.44;;;-144.09;100.00
8890;BME280;4481;43.406;24.454;2023-03-04T03:09:07;77790.91;;;-144.09;100.00
8890;BME280;4481;43.406;24.454;2023-03-04T03:11:34;77803.44;;;-144.09;100.00
8890;BME280;4481;43.406;24.454;2023-03-04T03:14:00;77811.81;;;-144.09;100.00
8890;BME280;4481;43.406;24.454;2023-03-04T03:16:27;77803.44;;;-144.09;100.00
8890;BME280;4481;43.406;24.454;2023-03-04T03:18:53;77805.53;;;-144.09;100.00
8890;BME280;4481;43.406;24.454;2023-03-04T03:21:20;77813.91;;;-144.09;100.00
8890;BME280;4481;43.406;24.454;2023-03-04T03:23:46;77801.34;;;-144.09;100.00
8890;BME280;4481;43.406;24.454;2023-03-04T03:26:12;77801.34;;;-144.09;100.00
8890;BME280;4481;43.406;24.454;2023-03-04T03:28:38;77788.81;;;-144.09;100.00
8890;BME280;4481;43.406;24.454;2023-03-04T03:31:04;77782.53;;;-144.09;100.00
8890;BME280;4481;43.406;24.454;2023-03-04T03:33:30;77803.44;;;-144.09;100.00
8890;BME280;4481;43.406;24.454;2023-03-04T03:35:57;77778.38;;;-144.09;100.00
8890;BME280;4481;43.406;24.454;2023-03-04T03:38:24;77797.19;;;-144.09;100.00
8890;BME280;4481;43.406;24.454;2023-03-04T03:40:50;77782.53;;;-144.09;100.00
8890;BME280;4481;43.406;24.454;2023-03-04T03:43:17;77784.63;;;-144.09;100.00
8890;BME280;4481;43.406;24.454;2023-03-04T03:45:43;77776.28;;;-144.09;100.00
8890;BME280;4481;43.406;24.454;2023-03-04T03:48:09;77790.91;;;-144.09;100.00
8890;BME280;4481;43.406;24.454;2023-03-04T03:50:35;77803.44;;;-144.09;100.00
8890;BME280;4481;43.406;24.454;2023-03-04T03:53:02;77795.09;;;-144.09;100.00
8890;BME280;4481;43.406;24.454;2023-03-04T03:55:28;77811.81;;;-144.09;100.00
8890;BME280;4481;43.406;24.454;2023-03-04T03:57:54;77805.53;;;-144.09;100.00
8890;BME280;4481;43.406;24.454;2023-03-04T04:00:21;77807.63;;;-144.09;100.00
8890;BME280;4481;43.406;24.454;2023-03-04T04:02:47;77826.44;;;-144.09;100.00
8890;BME280;4481;43.406;24.454;2023-03-04T04:05:13;77816.00;;;-144.09;100.00
8890;BME280;4481;43.406;24.454;2023-03-04T04:07:41;77793.00;;;-144.09;100.00
8890;BME280;4481;43.406;24.454;2023-03-04T04:10:09;77782.53;;;-144.09;100.00
8890;BME280;4481;43.406;24.454;2023-03-04T04:12:35;77799.28;;;-144.09;100.00
8890;BME280;4481;43.406;24.454;2023-03-04T04:15:02;77811.81;;;-144.09;100.00
8890;BME280;4481;43.406;24.454;2023-03-04T04:17:28;77795.09;;;-144.09;100.00
8890;BME280;4481;43.406;24.454;2023-03-04T04:19:54;77793.00;;;-144.09;100.00
8890;BME280;4481;43.406;24.454;2023-03-04T04:22:20;77803.44;;;-144.09;100.00
8890;BME280;4481;43.406;24.454;2023-03-04T04:24:47;77818.09;;;-144.09;100.00
8890;BME280;4481;43.406;24.454;2023-03-04T04:27:14;77803.44;;;-144.09;100.00
8890;BME280;4481;43.406;24.454;2023-03-04T04:29:40;77799.28;;;-144.09;100.00
8890;BME280;4481;43.406;24.454;2023-03-04T04:32:07;77784.63;;;-144.09;100.00
8890;BME280;4481;43.406;24.454;2023-03-04T04:34:33;77776.28;;;-144.09;100.00
8890;BME280;4481;43.406;24.454;2023-03-04T04:37:00;77772.09;;;-144.09;100.00
8890;BME280;4481;43.406;24.454;2023-03-04T04:39:26;77767.91;;;-144.09;100.00
8890;BME280;4481;43.406;24.454;2023-03-04T04:41:52;77784.63;;;-144.09;100.00
8890;BME280;4481;43.406;24.454;2023-03-04T04:44:19;77793.00;;;-144.09;100.00
8890;BME280;4481;43.406;24.454;2023-03-04T04:46:45;77807.63;;;-144.09;100.00
8890;BME280;4481;43.406;24.454;2023-03-04T04:49:11;77805.53;;;-144.09;100.00
8890;BME280;4481;43.406;24.454;2023-03-04T04:51:38;77805.53;;;-144.09;100.00
8890;BME280;4481;43.406;24.454;2023-03-04T04:54:05;77826.44;;;-144.09;100.00
8890;BME280;4481;43.406;24.454;2023-03-04T04:56:31;77809.72;;;-144.09;100.00
8890;BME280;4481;43.406;24.454;2023-03-04T04:59:00;77801.34;;;-144.09;100.00
8890;BME280;4481;43.406;24.454;2023-03-04T05:01:27;77799.28;;;-144.09;100.00
8890;BME280;4481;43.406;24.454;2023-03-04T05:03:53;77826.44;;;-144.09;100.00
8890;BME280;4481;43.406;24.454;2023-03-04T05:06:21;77818.09;;;-144.09;100.00
8890;BME280;4481;43.406;24.454;2023-03-04T05:08:47;77830.63;;;-144.09;100.00
8890;BME280;4481;43.406;24.454;2023-03-04T05:11:14;77805.53;;;-144.09;100.00
8890;BME280;4481;43.406;24.454;2023-03-04T05:13:40;77811.81;;;-144.09;100.00
8890;BME280;4481;43.406;24.454;2023-03-04T05:16:07;77795.09;;;-144.09;100.00
8890;BME280;4481;43.406;24.454;2023-03-04T05:18:35;77811.81;;;-144.09;100.00
8890;BME280;4481;43.406;24.454;2023-03-04T05:21:02;77820.16;;;-144.09;100.00
8890;BME280;4481;43.406;24.454;2023-03-04T05:23:30;77832.72;;;-144.09;100.00
8890;BME280;4481;43.406;24.454;2023-03-04T05:25:57;77813.91;;;-144.09;100.00
8890;BME280;4481;43.406;24.454;2023-03-04T05:28:24;77822.25;;;-144.09;100.00
8890;BME280;4481;43.406;24.454;2023-03-04T05:30:50;77849.44;;;-144.09;100.00
8890;BME280;4481;43.406;24.454;2023-03-04T05:33:17;77847.34;;;-144.09;100.00
8890;BME280;4481;43.406;24.454;2023-03-04T05:35:44;77868.25;;;-144.09;100.00
8890;BME280;4481;43.406;24.454;2023-03-04T05:38:12;77882.88;;;-144.09;100.00
8890;BME280;4481;43.406;24.454;2023-03-04T05:40:39;77882.88;;;-144.09;100.00
8890;BME280;4481;43.406;24.454;2023-03-04T05:43:06;77880.78;;;-144.09;100.00
8890;BME280;4481;43.406;24.454;2023-03-04T05:45:32;77884.97;;;-144.09;100.00
8890;BME280;4481;43.406;24.454;2023-03-04T05:47:59;77910.06;;;-144.09;100.00
8890;BME280;4481;43.406;24.454;2023-03-04T05:50:25;77914.25;;;-144.09;100.00
8890;BME280;4481;43.406;24.454;2023-03-04T05:52:52;77895.44;;;-144.09;100.00
8890;BME280;4481;43.406;24.454;2023-03-04T05:55:18;77897.50;;;-144.09;100.00
8890;BME280;4481;43.406;24.454;2023-03-04T05:57:44;77876.63;;;-144.09;100.00
8890;BME280;4481;43.406;24.454;2023-03-04T06:00:12;77876.63;;;-144.09;100.00
8890;BME280;4481;43.406;24.454;2023-03-04T06:02:40;77861.97;;;-144.09;100.00
8890;BME280;4481;43.406;24.454;2023-03-04T06:05:08;77847.34;;;-144.09;100.00
8890;BME280;4481;43.406;24.454;2023-03-04T06:07:34;77834.81;;;-144.09;100.00
8890;BME280;4481;43.406;24.454;2023-03-04T06:10:01;77836.91;;;-144.09;100.00
8890;BME280;4481;43.406;24.454;2023-03-04T06:12:27;77855.72;;;-144.09;100.00
8890;BME280;4481;43.406;24.454;2023-03-04T06:14:54;77851.53;;;-144.09;100.00
8890;BME280;4481;43.406;24.454;2023-03-04T06:17:20;77847.34;;;-144.09;100.00
8890;BME280;4481;43.406;24.454;2023-03-04T06:19:47;77826.44;;;-144.09;100.00
8890;BME280;4481;43.406;24.454;2023-03-04T06:22:13;77803.44;;;-144.09;100.00
8890;BME280;4481;43.406;24.454;2023-03-04T06:24:39;77782.53;;;-144.09;100.00
8890;BME280;4481;43.406;24.454;2023-03-04T06:27:06;77749.09;;;-144.09;100.00
8890;BME280;4481;43.406;24.454;2023-03-04T06:29:32;77732.38;;;-144.09;100.00
8890;BME280;4481;43.406;24.454;2023-03-04T06:31:58;77709.38;;;-144.09;100.00
8890;BME280;4481;43.406;24.454;2023-03-04T06:34:24;77694.75;;;-144.09;100.00
8890;BME280;4481;43.406;24.454;2023-03-04T06:36:50;77698.94;;;-144.09;100.00
8890;BME280;4481;43.406;24.454;2023-03-04T06:39:17;77696.84;;;-144.09;100.00
8890;BME280;4481;43.406;24.454;2023-03-04T06:41:43;77669.66;;;-144.09;100.00
8890;BME280;4481;43.406;24.454;2023-03-04T06:44:10;77650.84;;;-144.09;100.00
8890;BME280;4481;43.406;24.454;2023-03-04T06:46:37;77627.88;;;-144.09;100.00
8890;BME280;4481;43.406;24.454;2023-03-04T06:49:03;77623.69;;;-144.09;100.00
8890;BME280;4481;43.406;24.454;2023-03-04T06:51:29;77621.59;;;-144.09;100.00
8890;BME280;4481;43.406;24.454;2023-03-04T06:53:55;77583.97;;;-144.09;100.00
8890;BME280;4481;43.406;24.454;2023-03-04T06:56:21;77560.97;;;-144.09;100.00
8890;BME280;4481;43.406;24.454;2023-03-04T06:58:47;77546.34;;;-144.09;100.00
8890;BME280;4481;43.406;24.454;2023-03-04T07:01:17;77531.72;;;-144.09;100.00
8890;BME280;4481;43.406;24.454;2023-03-04T07:03:43;77492.00;;;-144.09;100.00
8890;BME280;4481;43.406;24.454;2023-03-04T07:06:10;77481.56;;;-144.09;100.00
8890;BME280;4481;43.406;24.454;2023-03-04T07:08:38;77477.38;;;-144.09;100.00
8890;BME280;4481;43.406;24.454;2023-03-04T07:11:04;77460.66;;;-144.09;100.00
8890;BME280;4481;43.406;24.454;2023-03-04T07:13:31;77460.66;;;-144.09;100.00
8890;BME280;4481;43.406;24.454;2023-03-04T07:15:59;77464.84;;;-144.09;99.71
8890;BME280;4481;43.406;24.454;2023-03-04T07:18:25;77487.81;;;-144.09;99.91
8890;BME280;4481;43.406;24.454;2023-03-04T07:20:52;77494.09;;;-144.09;100.00
8890;BME280;4481;43.406;24.454;2023-03-04T07:23:18;77483.66;;;-144.09;100.00
8890;BME280;4481;43.406;24.454;2023-03-04T07:25:44;77496.19;;;-144.09;100.00
8890;BME280;4481;43.406;24.454;2023-03-04T07:28:10;77454.38;;;-144.09;99.54
8890;BME280;4481;43.406;24.454;2023-03-04T07:30:37;77433.47;;;-144.09;99.63
8890;BME280;4481;43.406;24.454;2023-03-04T07:33:03;77381.22;;;-144.09;98.72
8890;BME280;4481;43.406;24.454;2023-03-04T07:35:30;77370.78;;;-144.09;98.41
8890;BME280;4481;43.406;24.454;2023-03-04T07:37:56;77362.41;;;-144.09;97.57
8890;BME280;4481;43.406;24.454;2023-03-04T07:40:22;77351.97;;;-144.09;97.85
8890;BME280;4481;43.406;24.454;2023-03-04T07:42:49;77349.88;;;-144.09;94.88
8890;BME280;4481;43.406;24.454;2023-03-04T07:45:15;77377.06;;;-144.09;94.65
8890;BME280;4481;43.406;24.454;2023-03-04T07:47:41;77385.41;;;-144.09;94.54
8890;BME280;4481;43.406;24.454;2023-03-04T07:50:09;77387.50;;;-144.09;94.01
8890;BME280;4481;43.406;24.454;2023-03-04T07:52:37;77377.06;;;-144.09;94.12
8890;BME280;4481;43.406;24.454;2023-03-04T07:55:04;77389.59;;;-144.09;94.86
8890;BME280;4481;43.406;24.454;2023-03-04T07:57:30;77397.94;;;-144.09;95.12
8890;BME280;4481;43.406;24.454;2023-03-04T07:59:57;77389.59;;;-144.09;95.28
8890;BME280;4481;43.406;24.454;2023-03-04T08:02:24;77404.22;;;-144.09;94.40
8890;BME280;4481;43.406;24.454;2023-03-04T08:04:50;77408.41;;;-144.09;94.47
8890;BME280;4481;43.406;24.454;2023-03-04T08:07:17;77404.22;;;-144.09;93.77
8890;BME280;4481;43.406;24.454;2023-03-04T08:09:43;77383.31;;;-144.09;93.39
8890;BME280;4481;43.406;24.454;2023-03-04T08:12:10;77404.22;;;-144.09;94.14
8890;BME280;4481;43.406;24.454;2023-03-04T08:14:36;77374.97;;;-144.09;93.99
8890;BME280;4481;43.406;24.454;2023-03-04T08:17:02;77381.22;;;-144.09;93.15
8890;BME280;4481;43.406;24.454;2023-03-04T08:19:28;77395.88;;;-144.09;93.90
8890;BME280;4481;43.406;24.454;2023-03-04T08:21:54;77393.78;;;-144.09;93.54
8890;BME280;4481;43.406;24.454;2023-03-04T08:24:21;77420.94;;;-144.09;93.45
8890;BME280;4481;43.406;24.454;2023-03-04T08:26:48;77431.38;;;-144.09;94.16
8890;BME280;4481;43.406;24.454;2023-03-04T08:29:16;77423.03;;;-144.09;94.22
8890;BME280;4481;43.406;24.454;2023-03-04T08:31:42;77420.94;;;-144.09;94.55
8890;BME280;4481;43.406;24.454;2023-03-04T08:34:11;77408.41;;;-144.09;94.60
8890;BME280;4481;43.406;24.454;2023-03-04T08:36:39;77412.59;;;-144.09;94.06
8890;BME280;4481;43.406;24.454;2023-03-04T08:39:05;77402.13;;;-144.09;94.24
8890;BME280;4481;43.406;24.454;2023-03-04T08:41:32;77377.06;;;-144.09;94.35
8890;BME280;4481;43.406;24.454;2023-03-04T08:43:59;77316.44;;;-144.09;93.99
8890;BME280;4481;43.406;24.454;2023-03-04T08:46:26;77262.09;;;-144.09;92.48
8890;BME280;4481;43.406;24.454;2023-03-04T08:48:52;77226.56;;;-144.09;92.57
8890;BME280;4481;43.406;24.454;2023-03-04T08:51:18;77163.88;;;-144.09;92.29
8890;BME280;4481;43.406;24.454;2023-03-04T08:53:45;77163.88;;;-144.09;92.00
8890;BME280;4481;43.406;24.454;2023-03-04T08:56:12;77145.06;;;-144.09;90.41
8890;BME280;4481;43.406;24.454;2023-03-04T08:58:38;77149.25;;;-144.09;90.68
8890;BME280;4481;43.406;24.454;2023-03-04T09:01:07;77132.53;;;-144.09;91.12
8890;BME280;4481;43.406;24.454;2023-03-04T09:03:33;77151.34;;;-144.09;91.10
8890;BME280;4481;43.406;24.454;2023-03-04T09:06:01;77130.44;;;-144.09;90.66
8890;BME280;4481;43.406;24.454;2023-03-04T09:08:28;77128.34;;;-144.09;90.65
8890;BME280;4481;43.406;24.454;2023-03-04T09:10:54;77153.41;;;-144.09;91.25
8890;BME280;4481;43.406;24.454;2023-03-04T09:13:20;77176.41;;;-144.09;91.38
8890;BME280;4481;43.406;24.454;2023-03-04T09:15:49;77161.78;;;-144.09;90.32
8890;BME280;4481;43.406;24.454;2023-03-04T09:18:16;77197.31;;;-144.09;91.31
8890;BME280;4481;43.406;24.454;2023-03-04T09:20:43;77220.31;;;-144.09;91.50
8890;BME280;4481;43.406;24.454;2023-03-04T09:23:10;77188.94;;;-144.09;91.18
8890;BME280;4481;43.406;24.454;2023-03-04T09:25:36;77168.06;;;-144.09;91.03
8890;BME280;4481;43.406;24.454;2023-03-04T09:28:04;77151.34;;;-144.09;89.55
8890;BME280;4481;43.406;24.454;2023-03-04T09:30:30;77153.41;;;-144.09;90.54
8890;BME280;4481;43.406;24.454;2023-03-04T09:32:56;77161.78;;;-144.09;91.20
8890;BME280;4481;43.406;24.454;2023-03-04T09:35:23;77161.78;;;-144.09;90.75
8890;BME280;4481;43.406;24.454;2023-03-04T09:37:50;77170.16;;;-144.09;91.60
8890;BME280;4481;43.406;24.454;2023-03-04T09:40:19;77147.16;;;-144.09;91.35
8890;BME280;4481;43.406;24.454;2023-03-04T09:42:49;77153.41;;;-144.09;90.33
8890;BME280;4481;43.406;24.454;2023-03-04T09:45:18;77147.16;;;-144.09;90.50
8890;BME280;4481;43.406;24.454;2023-03-04T09:47:46;77147.16;;;-144.09;90.86
8890;BME280;4481;43.406;24.454;2023-03-04T09:50:13;77097.00;;;-144.09;89.93
8890;BME280;4481;43.406;24.454;2023-03-04T09:52:52;77126.25;;;-144.09;90.97
8890;BME280;4481;43.406;24.454;2023-03-04T09:55:31;77124.16;;;-144.09;91.77
8890;BME280;4481;43.406;24.454;2023-03-04T09:58:04;77124.16;;;-144.09;89.69
8890;BME280;4481;43.406;24.454;2023-03-04T10:00:35;77113.72;;;-144.09;89.35
8890;BME280;4481;43.406;24.454;2023-03-04T10:03:12;77080.28;;;-144.09;88.97
8890;BME280;4481;43.406;24.454;2023-03-04T10:05:45;77069.81;;;-144.09;90.76
8890;BME280;4481;43.406;24.454;2023-03-04T10:08:30;77067.75;;;-144.09;88.61
8890;BME280;4481;43.406;24.454;2023-03-04T10:10:59;77086.53;;;-144.09;89.61
8890;BME280;4481;43.406;24.454;2023-03-04T10:13:32;77082.38;;;-144.09;89.87
8890;BME280;4481;43.406;24.454;2023-03-04T10:16:04;77069.81;;;-144.09;90.25
8890;BME280;4481;43.406;24.454;2023-03-04T10:18:34;77065.66;;;-144.09;90.68
8890;BME280;4481;43.406;24.454;2023-03-04T10:21:07;77053.09;;;-144.09;89.77
8890;BME280;4481;43.406;24.454;2023-03-04T10:23:39;77038.47;;;-144.09;90.04
8890;BME280;4481;43.406;24.454;2023-03-04T10:26:12;77046.84;;;-144.09;89.96
8890;BME280;4481;43.406;24.454;2023-03-04T10:28:38;77032.22;;;-144.09;89.17
8890;BME280;4481;43.406;24.454;2023-03-04T10:31:10;77036.38;;;-144.09;89.60
8890;BME280;4481;43.406;24.454;2023-03-04T10:33:40;77009.22;;;-144.09;90.04
8890;BME280;4481;43.406;24.454;2023-03-04T10:36:31;77038.47;;;-144.09;89.91
8890;BME280;4481;43.406;24.454;2023-03-04T10:39:05;77048.94;;;-144.09;90.78
8890;BME280;4481;43.406;24.454;2023-03-04T10:41:33;77059.38;;;-144.09;91.17
8890;BME280;4481;43.406;24.454;2023-03-04T10:44:01;77032.22;;;-144.09;90.97
8890;BME280;4481;43.406;24.454;2023-03-04T10:46:28;77030.13;;;-144.09;91.12
8890;BME280;4481;43.406;24.454;2023-03-04T10:48:54;77036.38;;;-144.09;90.73
8890;BME280;4481;43.406;24.454;2023-03-04T10:51:22;77059.38;;;-144.09;90.71
8890;BME280;4481;43.406;24.454;2023-03-04T10:53:51;77053.09;;;-144.09;91.39
8890;BME280;4481;43.406;24.454;2023-03-04T10:56:32;77023.84;;;-144.09;89.49
8890;BME280;4481;43.406;24.454;2023-03-04T10:59:33;77021.75;;;-144.09;90.41
8890;BME280;4481;43.406;24.454;2023-03-04T11:02:15;77025.94;;;-144.09;89.76
8890;BME280;4481;43.406;24.454;2023-03-04T11:04:46;77007.13;;;-144.09;89.76
8890;BME280;4481;43.406;24.454;2023-03-04T11:07:14;76959.06;;;-144.09;90.32
8890;BME280;4481;43.406;24.454;2023-03-04T11:09:43;76946.53;;;-144.09;88.77
8890;BME280;4481;43.406;24.454;2023-03-04T11:12:12;76944.44;;;-144.09;86.92
8890;BME280;4481;43.406;24.454;2023-03-04T11:14:40;76948.63;;;-144.09;87.49
8890;BME280;4481;43.406;24.454;2023-03-04T11:17:18;76921.44;;;-144.09;87.52
8890;BME280;4481;43.406;24.454;2023-03-04T11:19:47;76913.09;;;-144.09;87.85
8890;BME280;4481;43.406;24.454;2023-03-04T11:22:15;76906.81;;;-144.09;85.72
8890;BME280;4481;43.406;24.454;2023-03-04T11:24:42;76908.91;;;-144.09;85.75
8890;BME280;4481;43.406;24.454;2023-03-04T11:27:14;76892.19;;;-144.09;86.40
8890;BME280;4481;43.406;24.454;2023-03-04T11:29:47;76911.00;;;-144.09;87.62
8890;BME280;4481;43.406;24.454;2023-03-04T11:32:19;76911.00;;;-144.09;87.67
8890;BME280;4481;43.406;24.454;2023-03-04T11:34:50;76900.56;;;-144.09;87.97
8890;BME280;4481;43.406;24.454;2023-03-04T11:37:21;76906.81;;;-144.09;87.27
8890;BME280;4481;43.406;24.454;2023-03-04T11:39:53;76879.66;;;-144.09;87.48
8890;BME280;4481;43.406;24.454;2023-03-04T11:42:27;76871.28;;;-144.09;86.88
8890;BME280;4481;43.406;24.454;2023-03-04T11:44:56;76850.41;;;-144.09;86.11
8890;BME280;4481;43.406;24.454;2023-03-04T11:47:40;76848.31;;;-144.09;85.93
8890;BME280;4481;43.406;24.454;2023-03-04T11:50:26;76854.56;;;-144.09;85.73
8890;BME280;4481;43.406;24.454;2023-03-04T11:55:47;76846.22;;;-144.09;87.55
8890;BME280;4481;43.406;24.454;2023-03-04T11:58:50;76831.59;;;-144.09;86.31
8890;BME280;4481;43.406;24.454;2023-03-04T12:01:26;76833.69;;;-144.09;85.76
8890;BME280;4481;43.406;24.454;2023-03-04T12:04:13;76829.50;;;-144.09;84.30
8890;BME280;4481;43.406;24.454;2023-03-04T12:06:51;76860.84;;;-144.09;86.22
8890;BME280;4481;43.406;24.454;2023-03-04T12:09:31;76900.56;;;-144.09;87.67
8890;BME280;4481;43.406;24.454;2023-03-04T12:12:10;76890.09;;;-144.09;89.02
8890;BME280;4481;43.406;24.454;2023-03-04T12:14:48;76854.56;;;-144.09;88.21
8890;BME280;4481;43.406;24.454;2023-03-04T12:17:33;76846.22;;;-144.09;85.87
8890;BME280;4481;43.406;24.454;2023-03-04T12:20:21;76835.78;;;-144.09;84.90
8890;BME280;4481;43.406;24.454;2023-03-04T12:22:55;76829.50;;;-144.09;84.86
8890;BME280;4481;43.406;24.454;2023-03-04T12:25:40;76810.69;;;-144.09;83.18
8890;BME280;4481;43.406;24.454;2023-03-04T12:28:20;76810.69;;;-144.09;83.48
8890;BME280;4481;43.406;24.454;2023-03-04T12:31:11;76762.63;;;-144.09;83.96
8890;BME280;4481;43.406;24.454;2023-03-04T12:33:50;76735.47;;;-144.09;84.22
8890;BME280;4481;43.406;24.454;2023-03-04T12:36:27;76745.91;;;-144.09;83.51
8890;BME280;4481;43.406;24.454;2023-03-04T12:39:14;76754.28;;;-144.09;85.04
8890;BME280;4481;43.406;24.454;2023-03-04T12:41:50;76758.44;;;-144.09;85.13
8890;BME280;4481;43.406;24.454;2023-03-04T12:44:21;76731.28;;;-144.09;85.00
8890;BME280;4481;43.406;24.454;2023-03-04T12:47:10;76758.44;;;-144.09;83.38
8890;BME280;4481;43.406;24.454;2023-03-04T12:49:54;76768.91;;;-144.09;84.59
8890;BME280;4481;43.406;24.454;2023-03-04T12:52:32;76781.44;;;-144.09;86.05
8890;BME280;4481;43.406;24.454;2023-03-04T12:55:07;76773.06;;;-144.09;86.12